sensor_id;sensor_type;location;lat;lon;timestamp;temperature;humidity
6758;DHT22;3416;53.074;8.822;2024-02-21T01:24:35;10.00;99.90
6758;DHT22;3416;53.074;8.822;2024-02-21T01:27:02;10.00;99.90
6758;DHT22;3416;53.074;8.822;2024-02-21T01:29:29;10.00;99.90
6758;DHT22;3416;53.074;8.822;2024-02-21T01:31:56;10.00;99.90
6758;DHT22;3416;53.074;8.822;2024-02-21T01:34:23;9.80;99.90
6758;DHT22;3416;53.074;8.822;2024-02-21T01:36:50;10.00;99.90
6758;DHT22;3416;53.074;8.822;2024-02-21T01:39:17;10.00;99.90
6758;DHT22;3416;53.074;8.822;2024-02-21T01:41:45;10.00;99.90
6758;DHT22;3416;53.074;8.822;2024-02-21T01:44:14;10.10;99.90
6758;DHT22;3416;53.074;8.822;2024-02-21T01:46:41;10.10;99.90
6758;DHT22;3416;53.074;8.822;2024-02-21T01:49:08;10.00;99.90
6758;DHT22;3416;53.074;8.822;2024-02-21T01:51:35;10.10;99.90
6758;DHT22;3416;53.074;8.822;2024-02-21T01:54:03;10.00;99.90
6758;DHT22;3416;53.074;8.822;2024-02-21T01:56:30;10.00;99.90
6758;DHT22;3416;53.074;8.822;2024-02-21T01:58:59;10.00;99.90
6758;DHT22;3416;53.074;8.822;2024-02-21T02:01:26;10.00;99.90
6758;DHT22;3416;53.074;8.822;2024-02-21T02:03:54;10.00;99.90
6758;DHT22;3416;53.074;8.822;2024-02-21T02:06:21;10.00;99.90
6758;DHT22;3416;53.074;8.822;2024-02-21T02:08:48;10.00;99.90
6758;DHT22;3416;53.074;8.822;2024-02-21T02:11:16;10.10;99.90
6758;DHT22;3416;53.074;8.822;2024-02-21T02:13:44;10.00;99.90
6758;DHT22;3416;53.074;8.822;2024-02-21T02:16:12;10.10;99.90
6758;DHT22;3416;53.074;8.822;2024-02-21T02:18:39;10.10;99.90
6758;DHT22;3416;53.074;8.822;2024-02-21T02:21:10;10.10;99.90
6758;DHT22;3416;53.074;8.822;2024-02-21T02:23:41;10.00;99.90
6758;DHT22;3416;53.074;8.822;2024-02-21T02:26:09;10.00;99.90
6758;DHT22;3416;53.074;8.822;2024-02-21T02:28:35;10.00;99.90
6758;DHT22;3416;53.074;8.822;2024-02-21T02:31:03;9.90;99.90
6758;DHT22;3416;53.074;8.822;2024-02-21T02:33:30;9.90;99.90
6758;DHT22;3416;53.074;8.822;2024-02-21T02:35:57;9.80;99.90
6758;DHT22;3416;53.074;8.822;2024-02-21T02:38:24;9.80;99.90
6758;DHT22;3416;53.074;8.822;2024-02-21T02:40:52;9.90;99.90
6758;DHT22;3416;53.074;8.822;2024-02-21T02:43:19;9.80;99.90
6758;DHT22;3416;53.074;8.822;2024-02-21T02:45:46;9.80;99.90
6758;DHT22;3416;53.074;8.822;2024-02-21T02:48:13;9.80;99.90
6758;DHT22;3416;53.074;8.822;2024-02-21T02:50:40;9.80;99.90
6758;DHT22;3416;53.074;8.822;2024-02-21T02:53:07;9.80;99.90
6758;DHT22;3416;53.074;8.822;2024-02-21T02:55:34;9.80;99.90
6758;DHT22;3416;53.074;8.822;2024-02-21T02:58:03;9.90;99.90
6758;DHT22;3416;53.074;8.822;2024-02-21T03:00:30;9.90;99.90
6758;DHT22;3416;53.074;8.822;2024-02-21T03:03:01;9.80;99.90
6758;DHT22;3416;53.074;8.822;2024-02-21T03:05:29;9.90;99.90
6758;DHT22;3416;53.074;8.822;2024-02-21T03:07:56;9.90;99.90
6758;DHT22;3416;53.074;8.822;2024-02-21T03:10:24;9.90;99.90
6758;DHT22;3416;53.074;8.822;2024-02-21T03:12:51;9.90;99.90
6758;DHT22;3416;53.074;8.822;2024-02-21T03:15:20;9.90;99.90
6758;DHT22;3416;53.074;8.822;2024-02-21T03:17:47;9.90;99.90
6758;DHT22;3416;53.074;8.822;2024-02-21T03:20:14;9.90;99.90
6758;DHT22;3416;53.074;8.822;2024-02-21T03:22:41;9.90;99.90
6758;DHT22;3416;53.074;8.822;2024-02-21T03:25:09;10.00;99.90
6758;DHT22;3416;53.074;8.822;2024-02-21T03:27:36;10.00;99.90
6758;DHT22;3416;53.074;8.822;2024-02-21T03:30:04;10.00;99.90
6758;DHT22;3416;53.074;8.822;2024-02-21T03:32:33;10.00;99.90
6758;DHT22;3416;53.074;8.822;2024-02-21T03:35:00;10.00;99.90
6758;DHT22;3416;53.074;8.822;2024-02-21T03:37:27;10.00;99.90
6758;DHT22;3416;53.074;8.822;2024-02-21T03:39:54;9.90;99.90
6758;DHT22;3416;53.074;8.822;2024-02-21T03:42:21;10.00;99.90
6758;DHT22;3416;53.074;8.822;2024-02-21T03:44:48;9.90;99.90
6758;DHT22;3416;53.074;8.822;2024-02-21T03:47:15;9.90;99.90
6758;DHT22;3416;53.074;8.822;2024-02-21T03:49:43;9.90;99.90
6758;DHT22;3416;53.074;8.822;2024-02-21T03:52:10;9.80;99.90
6758;DHT22;3416;53.074;8.822;2024-02-21T03:54:37;9.80;99.90
6758;DHT22;3416;53.074;8.822;2024-02-21T03:57:05;9.80;99.90
6758;DHT22;3416;53.074;8.822;2024-02-21T03:59:32;9.70;99.90
6758;DHT22;3416;53.074;8.822;2024-02-21T04:01:59;9.60;99.90
6758;DHT22;3416;53.074;8.822;2024-02-21T04:04:26;9.60;99.90
6758;DHT22;3416;53.074;8.822;2024-02-21T04:06:54;9.50;99.90
6758;DHT22;3416;53.074;8.822;2024-02-21T04:09:22;9.50;99.90
6758;DHT22;3416;53.074;8.822;2024-02-21T04:11:49;9.60;99.90
6758;DHT22;3416;53.074;8.822;2024-02-21T04:14:16;9.50;99.90
6758;DHT22;3416;53.074;8.822;2024-02-21T04:16:42;9.50;99.90
6758;DHT22;3416;53.074;8.822;2024-02-21T04:19:10;9.50;99.90
6758;DHT22;3416;53.074;8.822;2024-02-21T04:21:36;9.50;99.90
6758;DHT22;3416;53.074;8.822;2024-02-21T04:24:05;9.40;99.90
6758;DHT22;3416;53.074;8.822;2024-02-21T04:26:32;9.50;99.90
6758;DHT22;3416;53.074;8.822;2024-02-21T04:28:59;9.40;99.90
6758;DHT22;3416;53.074;8.822;2024-02-21T04:31:26;9.40;99.90
6758;DHT22;3416;53.074;8.822;2024-02-21T04:33:53;9.40;99.90
6758;DHT22;3416;53.074;8.822;2024-02-21T04:36:20;9.30;99.90
6758;DHT22;3416;53.074;8.822;2024-02-21T04:38:47;9.30;99.90
6758;DHT22;3416;53.074;8.822;2024-02-21T04:41:17;9.30;99.90
6758;DHT22;3416;53.074;8.822;2024-02-21T04:43:45;9.20;99.90
6758;DHT22;3416;53.074;8.822;2024-02-21T04:46:12;9.30;99.90
6758;DHT22;3416;53.074;8.822;2024-02-21T04:48:39;9.20;99.90
6758;DHT22;3416;53.074;8.822;2024-02-21T04:51:07;9.20;99.90
6758;DHT22;3416;53.074;8.822;2024-02-21T04:53:34;9.20;99.90
6758;DHT22;3416;53.074;8.822;2024-02-21T04:56:04;9.20;99.90
6758;DHT22;3416;53.074;8.822;2024-02-21T04:58:32;9.20;99.90
6758;DHT22;3416;53.074;8.822;2024-02-21T05:00:59;9.10;99.90
6758;DHT22;3416;53.074;8.822;2024-02-21T05:03:26;9.20;99.90
6758;DHT22;3416;53.074;8.822;2024-02-21T05:05:53;9.20;99.90
6758;DHT22;3416;53.074;8.822;2024-02-21T05:08:20;9.10;99.90
6758;DHT22;3416;53.074;8.822;2024-02-21T05:10:47;9.10;99.90
6758;DHT22;3416;53.074;8.822;2024-02-21T05:13:14;9.20;99.90
6758;DHT22;3416;53.074;8.822;2024-02-21T05:15:42;9.10;99.90
6758;DHT22;3416;53.074;8.822;2024-02-21T05:18:09;9.10;99.90
6758;DHT22;3416;53.074;8.822;2024-02-21T05:20:36;9.10;99.90
6758;DHT22;3416;53.074;8.822;2024-02-21T05:23:03;9.10;99.90
6758;DHT22;3416;53.074;8.822;2024-02-21T05:25:30;9.10;99.90
6758;DHT22;3416;53.074;8.822;2024-02-21T05:27:57;9.10;99.90
6758;DHT22;3416;53.074;8.822;2024-02-21T05:30:27;9.10;99.90
6758;DHT22;3416;53.074;8.822;2024-02-21T05:32:56;9.10;99.90
6758;DHT22;3416;53.074;8.822;2024-02-21T05:35:25;9.20;99.90
6758;DHT22;3416;53.074;8.822;2024-02-21T05:37:53;9.10;99.90
6758;DHT22;3416;53.074;8.822;2024-02-21T05:40:20;9.10;99.90
6758;DHT22;3416;53.074;8.822;2024-02-21T05:42:47;9.10;99.90
6758;DHT22;3416;53.074;8.822;2024-02-21T05:45:14;9.10;99.90
6758;DHT22;3416;53.074;8.822;2024-02-21T05:47:41;9.10;99.90
6758;DHT22;3416;53.074;8.822;2024-02-21T05:50:10;9.10;99.90
6758;DHT22;3416;53.074;8.822;2024-02-21T05:52:37;9.20;99.90
6758;DHT22;3416;53.074;8.822;2024-02-21T05:55:07;9.10;99.90
6758;DHT22;3416;53.074;8.822;2024-02-21T05:57:34;9.10;99.90
6758;DHT22;3416;53.074;8.822;2024-02-21T06:00:04;9.10;99.90
6758;DHT22;3416;53.074;8.822;2024-02-21T06:02:31;9.20;99.90
6758;DHT22;3416;53.074;8.822;2024-02-21T06:04:58;9.20;99.90
6758;DHT22;3416;53.074;8.822;2024-02-21T06:07:27;9.20;99.90
6758;DHT22;3416;53.074;8.822;2024-02-21T06:09:55;9.20;99.90
6758;DHT22;3416;53.074;8.822;2024-02-21T06:12:22;9.20;99.90
6758;DHT22;3416;53.074;8.822;2024-02-21T06:14:49;9.20;99.90
6758;DHT22;3416;53.074;8.822;2024-02-21T06:17:16;9.20;99.90
6758;DHT22;3416;53.074;8.822;2024-02-21T06:19:43;9.20;99.90
6758;DHT22;3416;53.074;8.822;2024-02-21T06:22:10;9.20;99.90
6758;DHT22;3416;53.074;8.822;2024-02-21T06:24:39;9.20;99.90
6758;DHT22;3416;53.074;8.822;2024-02-21T06:27:06;9.20;99.90
6758;DHT22;3416;53.074;8.822;2024-02-21T06:29:33;9.20;99.90
6758;DHT22;3416;53.074;8.822;2024-02-21T06:32:01;9.20;99.90
6758;DHT22;3416;53.074;8.822;2024-02-21T06:34:28;9.20;99.90
6758;DHT22;3416;53.074;8.822;2024-02-21T06:36:55;9.20;99.90
6758;DHT22;3416;53.074;8.822;2024-02-21T06:39:23;9.20;99.90
6758;DHT22;3416;53.074;8.822;2024-02-21T06:41:52;9.20;99.90
6758;DHT22;3416;53.074;8.822;2024-02-21T06:44:20;9.20;99.90
6758;DHT22;3416;53.074;8.822;2024-02-21T06:46:48;9.20;99.90
6758;DHT22;3416;53.074;8.822;2024-02-21T06:49:15;9.20;99.90
6758;DHT22;3416;53.074;8.822;2024-02-21T06:51:42;9.20;99.90
6758;DHT22;3416;53.074;8.822;2024-02-21T06:54:09;9.20;99.90
6758;DHT22;3416;53.074;8.822;2024-02-21T06:56:37;9.20;99.90
6758;DHT22;3416;53.074;8.822;2024-02-21T06:59:06;9.30;99.90
6758;DHT22;3416;53.074;8.822;2024-02-21T07:01:34;9.20;99.90
6758;DHT22;3416;53.074;8.822;2024-02-21T07:04:01;9.20;99.90
6758;DHT22;3416;53.074;8.822;2024-02-21T07:06:28;9.20;99.90
6758;DHT22;3416;53.074;8.822;2024-02-21T07:08:58;9.30;99.90
6758;DHT22;3416;53.074;8.822;2024-02-21T07:11:24;9.20;99.90
6758;DHT22;3416;53.074;8.822;2024-02-21T07:13:52;9.20;99.90
6758;DHT22;3416;53.074;8.822;2024-02-21T07:16:20;9.20;99.90
6758;DHT22;3416;53.074;8.822;2024-02-21T07:18:47;9.20;99.90
6758;DHT22;3416;53.074;8.822;2024-02-21T07:21:14;9.20;99.90
6758;DHT22;3416;53.074;8.822;2024-02-21T07:23:41;9.30;99.90
6758;DHT22;3416;53.074;8.822;2024-02-21T07:26:09;9.30;99.90
6758;DHT22;3416;53.074;8.822;2024-02-21T07:28:36;9.30;99.90
6758;DHT22;3416;53.074;8.822;2024-02-21T07:31:03;9.40;99.90
6758;DHT22;3416;53.074;8.822;2024-02-21T07:33:31;9.30;99.90
6758;DHT22;3416;53.074;8.822;2024-02-21T07:35:58;9.40;99.90
6758;DHT22;3416;53.074;8.822;2024-02-21T07:38:25;9.40;99.90
6758;DHT22;3416;53.074;8.822;2024-02-21T07:40:52;9.40;99.90
6758;DHT22;3416;53.074;8.822;2024-02-21T07:43:19;9.40;99.90
6758;DHT22;3416;53.074;8.822;2024-02-21T07:45:48;9.50;99.90
6758;DHT22;3416;53.074;8.822;2024-02-21T07:48:15;9.50;99.90
6758;DHT22;3416;53.074;8.822;2024-02-21T07:50:43;9.60;99.90
6758;DHT22;3416;53.074;8.822;2024-02-21T07:53:10;9.60;99.90
6758;DHT22;3416;53.074;8.822;2024-02-21T07:55:37;9.60;99.90
6758;DHT22;3416;53.074;8.822;2024-02-21T07:58:04;9.60;99.90
6758;DHT22;3416;53.074;8.822;2024-02-21T08:00:32;9.60;99.90
6758;DHT22;3416;53.074;8.822;2024-02-21T08:02:59;9.60;99.90
6758;DHT22;3416;53.074;8.822;2024-02-21T08:05:26;9.60;99.90
6758;DHT22;3416;53.074;8.822;2024-02-21T08:07:54;9.70;99.90
6758;DHT22;3416;53.074;8.822;2024-02-21T08:10:21;9.70;99.90
6758;DHT22;3416;53.074;8.822;2024-02-21T08:12:48;9.70;99.90
6758;DHT22;3416;53.074;8.822;2024-02-21T08:15:15;9.70;99.90
6758;DHT22;3416;53.074;8.822;2024-02-21T08:17:42;9.70;99.90
6758;DHT22;3416;53.074;8.822;2024-02-21T08:20:10;9.70;99.90
6758;DHT22;3416;53.074;8.822;2024-02-21T08:22:37;9.80;99.90
6758;DHT22;3416;53.074;8.822;2024-02-21T08:25:06;9.80;99.90
6758;DHT22;3416;53.074;8.822;2024-02-21T08:27:33;9.80;99.90
6758;DHT22;3416;53.074;8.822;2024-02-21T08:30:00;9.90;99.90
6758;DHT22;3416;53.074;8.822;2024-02-21T08:32:29;9.90;99.90
6758;DHT22;3416;53.074;8.822;2024-02-21T08:34:56;9.90;99.90
6758;DHT22;3416;53.074;8.822;2024-02-21T08:37:22;10.00;99.90
6758;DHT22;3416;53.074;8.822;2024-02-21T08:39:49;9.90;99.90
6758;DHT22;3416;53.074;8.822;2024-02-21T08:42:18;9.90;99.90
6758;DHT22;3416;53.074;8.822;2024-02-21T08:44:45;9.90;99.90
6758;DHT22;3416;53.074;8.822;2024-02-21T08:47:12;10.00;99.90
6758;DHT22;3416;53.074;8.822;2024-02-21T08:49:40;10.00;99.90
6758;DHT22;3416;53.074;8.822;2024-02-21T08:52:07;10.00;99.90
6758;DHT22;3416;53.074;8.822;2024-02-21T08:54:34;10.00;99.90
6758;DHT22;3416;53.074;8.822;2024-02-21T08:57:01;10.00;99.90
6758;DHT22;3416;53.074;8.822;2024-02-21T08:59:30;10.00;99.90
6758;DHT22;3416;53.074;8.822;2024-02-21T09:01:57;10.00;99.90
6758;DHT22;3416;53.074;8.822;2024-02-21T09:04:24;10.00;99.90
6758;DHT22;3416;53.074;8.822;2024-02-21T09:06:51;10.00;99.90
6758;DHT22;3416;53.074;8.822;2024-02-21T09:09:18;10.00;99.90
6758;DHT22;3416;53.074;8.822;2024-02-21T09:11:45;10.10;99.90
6758;DHT22;3416;53.074;8.822;2024-02-21T09:14:12;10.10;99.90
6758;DHT22;3416;53.074;8.822;2024-02-21T09:16:41;10.00;99.90
6758;DHT22;3416;53.074;8.822;2024-02-21T09:19:08;10.00;99.90
6758;DHT22;3416;53.074;8.822;2024-02-21T09:21:36;10.00;99.90
6758;DHT22;3416;53.074;8.822;2024-02-21T09:24:05;9.80;99.90
6758;DHT22;3416;53.074;8.822;2024-02-21T09:26:32;9.80;99.90
6758;DHT22;3416;53.074;8.822;2024-02-21T09:28:59;9.80;99.90
6758;DHT22;3416;53.074;8.822;2024-02-21T09:31:26;9.90;99.90
6758;DHT22;3416;53.074;8.822;2024-02-21T09:33:54;9.90;99.90
6758;DHT22;3416;53.074;8.822;2024-02-21T09:36:22;9.90;99.90
6758;DHT22;3416;53.074;8.822;2024-02-21T09:38:48;9.90;99.90
6758;DHT22;3416;53.074;8.822;2024-02-21T09:41:16;9.80;99.90
6758;DHT22;3416;53.074;8.822;2024-02-21T09:43:44;9.90;99.90
6758;DHT22;3416;53.074;8.822;2024-02-21T09:46:16;9.90;99.90
6758;DHT22;3416;53.074;8.822;2024-02-21T09:48:55;9.90;99.90
6758;DHT22;3416;53.074;8.822;2024-02-21T09:51:28;9.90;99.90
6758;DHT22;3416;53.074;8.822;2024-02-21T09:53:56;10.00;99.90
6758;DHT22;3416;53.074;8.822;2024-02-21T09:56:24;10.00;99.90
6758;DHT22;3416;53.074;8.822;2024-02-21T09:58:51;10.00;99.90
6758;DHT22;3416;53.074;8.822;2024-02-21T10:01:19;10.00;99.90
6758;DHT22;3416;53.074;8.822;2024-02-21T10:03:46;10.00;99.90
6758;DHT22;3416;53.074;8.822;2024-02-21T10:06:14;10.00;99.90
6758;DHT22;3416;53.074;8.822;2024-02-21T10:08:42;10.00;99.90
6758;DHT22;3416;53.074;8.822;2024-02-21T10:11:08;10.10;99.90
6758;DHT22;3416;53.074;8.822;2024-02-21T10:13:35;10.20;99.90
6758;DHT22;3416;53.074;8.822;2024-02-21T10:16:05;10.20;99.90
6758;DHT22;3416;53.074;8.822;2024-02-21T10:18:32;10.20;99.90
6758;DHT22;3416;53.074;8.822;2024-02-21T10:21:03;10.20;99.90
6758;DHT22;3416;53.074;8.822;2024-02-21T10:23:42;10.10;99.90
6758;DHT22;3416;53.074;8.822;2024-02-21T10:26:10;10.10;99.90
6758;DHT22;3416;53.074;8.822;2024-02-21T10:28:37;10.10;99.90
6758;DHT22;3416;53.074;8.822;2024-02-21T10:31:08;10.20;99.90
6758;DHT22;3416;53.074;8.822;2024-02-21T10:33:35;10.40;99.90
6758;DHT22;3416;53.074;8.822;2024-02-21T10:36:09;10.40;99.90
6758;DHT22;3416;53.074;8.822;2024-02-21T10:38:37;10.40;99.90
6758;DHT22;3416;53.074;8.822;2024-02-21T10:41:06;10.40;99.90
6758;DHT22;3416;53.074;8.822;2024-02-21T10:43:38;10.50;99.90
6758;DHT22;3416;53.074;8.822;2024-02-21T10:46:06;10.40;99.90
6758;DHT22;3416;53.074;8.822;2024-02-21T10:48:42;10.60;99.90
6758;DHT22;3416;53.074;8.822;2024-02-21T10:51:15;10.60;99.90
6758;DHT22;3416;53.074;8.822;2024-02-21T10:53:45;10.70;99.90
6758;DHT22;3416;53.074;8.822;2024-02-21T10:56:22;10.70;99.90
6758;DHT22;3416;53.074;8.822;2024-02-21T10:58:50;10.70;99.90
6758;DHT22;3416;53.074;8.822;2024-02-21T11:01:18;10.80;99.90
6758;DHT22;3416;53.074;8.822;2024-02-21T11:03:46;10.90;99.90
6758;DHT22;3416;53.074;8.822;2024-02-21T11:06:16;10.80;99.90
6758;DHT22;3416;53.074;8.822;2024-02-21T11:08:44;10.90;99.90
6758;DHT22;3416;53.074;8.822;2024-02-21T11:11:13;11.10;99.90
6758;DHT22;3416;53.074;8.822;2024-02-21T11:13:46;11.20;99.90
6758;DHT22;3416;53.074;8.822;2024-02-21T11:16:22;11.30;99.90
6758;DHT22;3416;53.074;8.822;2024-02-21T11:18:49;11.60;99.90
6758;DHT22;3416;53.074;8.822;2024-02-21T11:21:16;11.80;99.90
6758;DHT22;3416;53.074;8.822;2024-02-21T11:23:43;11.70;99.90
6758;DHT22;3416;53.074;8.822;2024-02-21T11:26:17;11.70;99.90
6758;DHT22;3416;53.074;8.822;2024-02-21T11:28:56;11.70;99.90
6758;DHT22;3416;53.074;8.822;2024-02-21T11:31:23;11.70;99.90
6758;DHT22;3416;53.074;8.822;2024-02-21T11:33:52;11.80;99.90
6758;DHT22;3416;53.074;8.822;2024-02-21T11:36:24;11.80;99.90
6758;DHT22;3416;53.074;8.822;2024-02-21T11:38:51;11.70;99.90
6758;DHT22;3416;53.074;8.822;2024-02-21T11:41:18;11.80;99.90
6758;DHT22;3416;53.074;8.822;2024-02-21T11:43:48;11.80;99.90
6758;DHT22;3416;53.074;8.822;2024-02-21T11:46:16;11.80;99.90
6758;DHT22;3416;53.074;8.822;2024-02-21T11:48:44;11.70;99.90
6758;DHT22;3416;53.074;8.822;2024-02-21T11:51:21;11.80;99.90
6758;DHT22;3416;53.074;8.822;2024-02-21T11:53:51;11.80;99.90
6758;DHT22;3416;53.074;8.822;2024-02-21T11:56:18;11.80;99.90
6758;DHT22;3416;53.074;8.822;2024-02-21T11:58:47;11.70;99.90
6758;DHT22;3416;53.074;8.822;2024-02-21T12:01:14;11.70;99.90
6758;DHT22;3416;53.074;8.822;2024-02-21T12:03:42;11.70;99.90
6758;DHT22;3416;53.074;8.822;2024-02-21T12:06:16;11.90;99.90
6758;DHT22;3416;53.074;8.822;2024-02-21T12:08:46;11.90;99.90
6758;DHT22;3416;53.074;8.822;2024-02-21T12:11:18;11.80;99.90
6758;DHT22;3416;53.074;8.822;2024-02-21T12:13:46;11.80;99.90
6758;DHT22;3416;53.074;8.822;2024-02-21T12:16:15;11.90;99.90
6758;DHT22;3416;53.074;8.822;2024-02-21T12:18:43;11.80;99.90
6758;DHT22;3416;53.074;8.822;2024-02-21T12:21:10;11.70;99.90
6758;DHT22;3416;53.074;8.822;2024-02-21T12:23:38;11.60;99.90
6758;DHT22;3416;53.074;8.822;2024-02-21T12:26:05;11.60;99.90
6758;DHT22;3416;53.074;8.822;2024-02-21T12:28:33;11.80;99.90
6758;DHT22;3416;53.074;8.822;2024-02-21T12:31:02;11.70;99.90
6758;DHT22;3416;53.074;8.822;2024-02-21T12:33:30;11.70;99.90
6758;DHT22;3416;53.074;8.822;2024-02-21T12:35:58;11.80;99.90
6758;DHT22;3416;53.074;8.822;2024-02-21T12:38:25;11.90;99.90
6758;DHT22;3416;53.074;8.822;2024-02-21T12:40:52;11.70;99.90
6758;DHT22;3416;53.074;8.822;2024-02-21T12:43:19;11.80;99.90
6758;DHT22;3416;53.074;8.822;2024-02-21T12:45:48;12.00;99.90
6758;DHT22;3416;53.074;8.822;2024-02-21T12:48:16;11.80;99.90
6758;DHT22;3416;53.074;8.822;2024-02-21T12:50:48;11.90;99.90
6758;DHT22;3416;53.074;8.822;2024-02-21T12:53:16;11.80;99.90
6758;DHT22;3416;53.074;8.822;2024-02-21T12:55:44;11.90;99.90
6758;DHT22;3416;53.074;8.822;2024-02-21T12:58:11;11.90;99.90
6758;DHT22;3416;53.074;8.822;2024-02-21T13:00:40;12.00;99.90
6758;DHT22;3416;53.074;8.822;2024-02-21T13:03:08;12.10;99.90
6758;DHT22;3416;53.074;8.822;2024-02-21T13:05:36;12.30;99.90
6758;DHT22;3416;53.074;8.822;2024-02-21T13:08:05;12.20;99.90
6758;DHT22;3416;53.074;8.822;2024-02-21T13:10:32;12.20;99.90
6758;DHT22;3416;53.074;8.822;2024-02-21T13:13:00;12.20;99.90
6758;DHT22;3416;53.074;8.822;2024-02-21T13:15:27;12.20;99.90
6758;DHT22;3416;53.074;8.822;2024-02-21T13:17:55;12.20;99.90
6758;DHT22;3416;53.074;8.822;2024-02-21T13:20:25;12.10;99.90
6758;DHT22;3416;53.074;8.822;2024-02-21T13:22:54;12.10;99.90
6758;DHT22;3416;53.074;8.822;2024-02-21T13:25:21;12.10;99.90
6758;DHT22;3416;53.074;8.822;2024-02-21T13:27:48;12.00;99.90
6758;DHT22;3416;53.074;8.822;2024-02-21T13:30:16;11.90;99.90
6758;DHT22;3416;53.074;8.822;2024-02-21T13:32:43;11.90;99.90
6758;DHT22;3416;53.074;8.822;2024-02-21T13:35:12;12.10;99.90
6758;DHT22;3416;53.074;8.822;2024-02-21T13:37:40;12.20;99.90
6758;DHT22;3416;53.074;8.822;2024-02-21T13:40:09;12.20;99.90
6758;DHT22;3416;53.074;8.822;2024-02-21T13:42:36;12.20;99.90
6758;DHT22;3416;53.074;8.822;2024-02-21T13:45:05;12.20;99.90
6758;DHT22;3416;53.074;8.822;2024-02-21T13:47:33;12.20;99.90
6758;DHT22;3416;53.074;8.822;2024-02-21T13:50:02;12.10;99.90
6758;DHT22;3416;53.074;8.822;2024-02-21T13:52:30;12.10;99.90
6758;DHT22;3416;53.074;8.822;2024-02-21T13:54:57;12.20;99.90
6758;DHT22;3416;53.074;8.822;2024-02-21T13:57:25;12.30;99.90
6758;DHT22;3416;53.074;8.822;2024-02-21T13:59:52;12.30;99.90
6758;DHT22;3416;53.074;8.822;2024-02-21T14:02:19;12.20;99.90
6758;DHT22;3416;53.074;8.822;2024-02-21T14:04:47;12.30;99.90
6758;DHT22;3416;53.074;8.822;2024-02-21T14:07:15;12.40;99.90
6758;DHT22;3416;53.074;8.822;2024-02-21T14:09:43;12.40;99.90
6758;DHT22;3416;53.074;8.822;2024-02-21T14:12:09;12.30;99.90
6758;DHT22;3416;53.074;8.822;2024-02-21T14:14:38;12.40;99.90
6758;DHT22;3416;53.074;8.822;2024-02-21T14:17:07;12.30;99.90
6758;DHT22;3416;53.074;8.822;2024-02-21T14:19:33;12.30;99.90
6758;DHT22;3416;53.074;8.822;2024-02-21T14:22:00;12.30;99.90
6758;DHT22;3416;53.074;8.822;2024-02-21T14:24:28;12.30;99.90
6758;DHT22;3416;53.074;8.822;2024-02-21T14:26:55;12.30;99.90
6758;DHT22;3416;53.074;8.822;2024-02-21T14:29:22;12.10;99.90
6758;DHT22;3416;53.074;8.822;2024-02-21T14:31:50;12.10;99.90
6758;DHT22;3416;53.074;8.822;2024-02-21T14:34:17;12.10;99.90
6758;DHT22;3416;53.074;8.822;2024-02-21T14:36:45;12.10;99.90
6758;DHT22;3416;53.074;8.822;2024-02-21T14:39:12;12.10;99.90
6758;DHT22;3416;53.074;8.822;2024-02-21T14:41:40;12.10;99.90
6758;DHT22;3416;53.074;8.822;2024-02-21T14:44:08;11.90;99.90
6758;DHT22;3416;53.074;8.822;2024-02-21T14:46:36;11.90;99.90
6758;DHT22;3416;53.074;8.822;2024-02-21T14:49:04;11.70;99.90
6758;DHT22;3416;53.074;8.822;2024-02-21T14:51:31;11.80;99.90
6758;DHT22;3416;53.074;8.822;2024-02-21T14:53:59;11.90;99.90
6758;DHT22;3416;53.074;8.822;2024-02-21T14:56:26;12.00;99.90
6758;DHT22;3416;53.074;8.822;2024-02-21T14:58:53;12.00;99.90
6758;DHT22;3416;53.074;8.822;2024-02-21T15:01:20;12.10;99.90
6758;DHT22;3416;53.074;8.822;2024-02-21T15:03:47;11.80;99.90
6758;DHT22;3416;53.074;8.822;2024-02-21T15:06:16;11.60;99.90
6758;DHT22;3416;53.074;8.822;2024-02-21T15:08:43;11.50;99.90
6758;DHT22;3416;53.074;8.822;2024-02-21T15:11:09;11.50;99.90
6758;DHT22;3416;53.074;8.822;2024-02-21T15:13:37;11.50;99.90
6758;DHT22;3416;53.074;8.822;2024-02-21T15:16:04;11.50;99.90
6758;DHT22;3416;53.074;8.822;2024-02-21T15:18:31;11.30;99.90
6758;DHT22;3416;53.074;8.822;2024-02-21T15:20:59;11.30;99.90
6758;DHT22;3416;53.074;8.822;2024-02-21T15:23:28;11.30;99.90
6758;DHT22;3416;53.074;8.822;2024-02-21T15:25:55;11.50;99.90
6758;DHT22;3416;53.074;8.822;2024-02-21T15:28:23;11.50;99.90
6758;DHT22;3416;53.074;8.822;2024-02-21T15:30:50;11.60;99.90
6758;DHT22;3416;53.074;8.822;2024-02-21T15:33:17;11.70;99.90
6758;DHT22;3416;53.074;8.822;2024-02-21T15:35:45;11.70;99.90
6758;DHT22;3416;53.074;8.822;2024-02-21T15:38:12;11.50;99.90
6758;DHT22;3416;53.074;8.822;2024-02-21T15:40:40;11.50;99.90
6758;DHT22;3416;53.074;8.822;2024-02-21T15:43:08;11.40;99.90
6758;DHT22;3416;53.074;8.822;2024-02-21T15:45:34;11.30;99.90
6758;DHT22;3416;53.074;8.822;2024-02-21T15:48:02;11.40;99.90
6758;DHT22;3416;53.074;8.822;2024-02-21T15:50:29;11.30;99.90
6758;DHT22;3416;53.074;8.822;2024-02-21T15:52:56;11.30;99.90
6758;DHT22;3416;53.074;8.822;2024-02-21T15:55:24;11.20;99.90
6758;DHT22;3416;53.074;8.822;2024-02-21T15:57:52;11.20;99.90
6758;DHT22;3416;53.074;8.822;2024-02-21T16:00:19;11.10;99.90
6758;DHT22;3416;53.074;8.822;2024-02-21T16:02:47;11.10;99.90
6758;DHT22;3416;53.074;8.822;2024-02-21T16:05:14;11.00;99.90
6758;DHT22;3416;53.074;8.822;2024-02-21T16:07:42;10.90;99.90
6758;DHT22;3416;53.074;8.822;2024-02-21T16:10:09;10.80;99.90
6758;DHT22;3416;53.074;8.822;2024-02-21T16:12:36;10.80;99.90
6758;DHT22;3416;53.074;8.822;2024-02-21T16:15:08;10.80;99.90
6758;DHT22;3416;53.074;8.822;2024-02-21T16:17:36;10.70;99.90
6758;DHT22;3416;53.074;8.822;2024-02-21T16:20:06;10.60;99.90
6758;DHT22;3416;53.074;8.822;2024-02-21T16:22:35;10.60;99.90
6758;DHT22;3416;53.074;8.822;2024-02-21T16:25:02;10.60;99.90
6758;DHT22;3416;53.074;8.822;2024-02-21T16:27:29;10.50;99.90
6758;DHT22;3416;53.074;8.822;2024-02-21T16:29:56;10.50;99.90
6758;DHT22;3416;53.074;8.822;2024-02-21T16:32:24;10.50;99.90
6758;DHT22;3416;53.074;8.822;2024-02-21T16:34:52;10.50;99.90
6758;DHT22;3416;53.074;8.822;2024-02-21T16:37:19;10.50;99.90
6758;DHT22;3416;53.074;8.822;2024-02-21T16:39:47;10.50;99.90
6758;DHT22;3416;53.074;8.822;2024-02-21T16:42:14;10.50;99.90
6758;DHT22;3416;53.074;8.822;2024-02-21T16:44:41;10.60;99.90
6758;DHT22;3416;53.074;8.822;2024-02-21T16:47:08;10.60;99.90
6758;DHT22;3416;53.074;8.822;2024-02-21T16:49:36;10.50;99.90
6758;DHT22;3416;53.074;8.822;2024-02-21T16:52:04;10.50;99.90
6758;DHT22;3416;53.074;8.822;2024-02-21T16:54:31;10.50;99.90
6758;DHT22;3416;53.074;8.822;2024-02-21T16:56:58;10.60;99.90
6758;DHT22;3416;53.074;8.822;2024-02-21T16:59:25;10.50;99.90
6758;DHT22;3416;53.074;8.822;2024-02-21T17:01:52;10.60;99.90
6758;DHT22;3416;53.074;8.822;2024-02-21T17:04:19;10.50;99.90
6758;DHT22;3416;53.074;8.822;2024-02-21T17:06:48;10.50;99.90
6758;DHT22;3416;53.074;8.822;2024-02-21T17:09:15;10.50;99.90
6758;DHT22;3416;53.074;8.822;2024-02-21T17:11:43;10.50;99.90
6758;DHT22;3416;53.074;8.822;2024-02-21T17:14:10;10.50;99.90
6758;DHT22;3416;53.074;8.822;2024-02-21T17:16:38;10.40;99.90
6758;DHT22;3416;53.074;8.822;2024-02-21T17:19:05;10.40;99.90
6758;DHT22;3416;53.074;8.822;2024-02-21T17:21:32;10.40;99.90
6758;DHT22;3416;53.074;8.822;2024-02-21T17:24:01;10.40;99.90
6758;DHT22;3416;53.074;8.822;2024-02-21T17:26:28;10.30;99.90
6758;DHT22;3416;53.074;8.822;2024-02-21T17:28:55;10.20;99.90
6758;DHT22;3416;53.074;8.822;2024-02-21T17:31:22;10.20;99.90
6758;DHT22;3416;53.074;8.822;2024-02-21T17:33:49;10.20;99.90